createdAt,value
2022-10-29T00:01:20.437Z,101885.66
2022-10-29T00:03:47.092Z,101887.16
2022-10-29T00:06:14.823Z,101879.63
2022-10-29T00:08:42.772Z,101882.16
2022-10-29T00:11:10.394Z,101881.31
2022-10-29T00:13:37.485Z,101874.28
2022-10-29T00:16:04.886Z,101867.91
2022-10-29T00:18:31.293Z,101864.41
2022-10-29T00:21:00.996Z,101855.38
2022-10-29T00:23:27.588Z,101857.22
2022-10-29T00:25:57.415Z,101842.00
2022-10-29T00:28:23.896Z,101843.81
2022-10-29T00:30:50.343Z,101835.78
2022-10-29T00:33:16.928Z,101841.00
2022-10-29T00:35:43.401Z,101846.34
2022-10-29T00:38:10.426Z,101839.31
2022-10-29T00:40:37.330Z,101844.66
2022-10-29T00:43:23.735Z,101854.69
2022-10-29T00:45:53.255Z,101850.69
2022-10-29T00:48:20.426Z,101851.84
2022-10-29T00:50:47.643Z,101860.72
2022-10-29T00:53:15.353Z,101847.81
2022-10-29T00:55:42.453Z,101851.47
2022-10-29T00:58:10.355Z,101858.84
2022-10-29T01:00:37.704Z,101852.97
2022-10-29T01:03:06.986Z,101868.19
2022-10-29T01:05:34.365Z,101864.00
2022-10-29T01:08:00.919Z,101863.31
2022-10-29T01:10:30.922Z,101863.66
2022-10-29T01:13:07.435Z,101867.09
2022-10-29T01:15:37.827Z,101858.06
2022-10-29T01:18:11.423Z,101852.50
2022-10-29T01:20:53.498Z,101839.25
2022-10-29T01:23:40.659Z,101839.41
2022-10-29T01:26:20.956Z,101833.38
2022-10-29T01:28:58.050Z,101832.22
2022-10-29T01:31:29.802Z,101827.72
2022-10-29T01:34:01.036Z,101824.84
2022-10-29T01:36:29.113Z,101831.06
2022-10-29T01:39:02.631Z,101831.06
2022-10-29T01:41:32.529Z,101830.91
2022-10-29T01:44:02.984Z,101827.06
2022-10-29T01:46:34.291Z,101828.59
2022-10-29T01:49:03.023Z,101819.56
2022-10-29T01:51:31.715Z,101815.22
2022-10-29T01:53:59.136Z,101812.53
2022-10-29T01:56:25.784Z,101810.88
2022-10-29T01:58:55.452Z,101810.88
2022-10-29T02:01:39.532Z,101802.84
2022-10-29T02:04:16.154Z,101802.84
2022-10-29T02:06:48.727Z,101800.16
2022-10-29T02:09:18.268Z,101785.09
2022-10-29T02:11:47.405Z,101799.47
2022-10-29T02:14:17.545Z,101788.94
2022-10-29T02:16:44.499Z,101787.09
2022-10-29T02:19:16.777Z,101787.09
2022-10-29T02:21:44.196Z,101779.22
2022-10-29T02:24:10.772Z,101783.25
2022-10-29T02:26:37.369Z,101779.88
2022-10-29T02:29:05.254Z,101790.59
2022-10-29T02:31:32.042Z,101785.38
2022-10-29T02:33:58.412Z,101779.34
2022-10-29T02:36:26.209Z,101784.88
2022-10-29T02:38:53.711Z,101782.34
2022-10-29T02:41:21.228Z,101779.84
2022-10-29T02:43:47.655Z,101779.84
2022-10-29T02:46:15.028Z,101779.84
2022-10-29T02:48:42.474Z,101772.00
2022-10-29T02:51:10.126Z,101762.28
2022-10-29T02:53:39.310Z,101762.28
2022-10-29T02:56:06.322Z,101752.44
2022-10-29T02:58:32.732Z,101746.94
2022-10-29T03:00:59.215Z,101744.25
2022-10-29T03:03:26.868Z,101740.91
2022-10-29T03:05:54.427Z,101749.22
2022-10-29T03:08:20.941Z,101748.06
2022-10-29T03:10:48.713Z,101752.59
2022-10-29T03:13:15.081Z,101748.91
2022-10-29T03:15:43.711Z,101744.25
2022-10-29T03:18:10.045Z,101729.03
2022-10-29T03:20:36.740Z,101731.72
2022-10-29T03:23:04.369Z,101740.38
2022-10-29T03:25:30.807Z,101740.53
2022-10-29T03:27:59.010Z,101734.50
2022-10-29T03:30:26.541Z,101731.47
2022-10-29T03:32:54.178Z,101737.44
2022-10-29T03:35:21.132Z,101738.38
2022-10-29T03:37:49.581Z,101731.34
2022-10-29T03:40:16.146Z,101730.50
2022-10-29T03:42:42.662Z,101728.53
2022-10-29T03:45:11.229Z,101730.75
2022-10-29T03:47:37.877Z,101725.09
2022-10-29T03:50:04.566Z,101715.91
2022-10-29T03:52:31.018Z,101722.09
2022-10-29T03:54:57.517Z,101721.25
2022-10-29T03:57:23.975Z,101714.22
2022-10-29T03:59:52.647Z,101716.91
2022-10-29T04:02:20.945Z,101694.50
2022-10-29T04:04:47.342Z,101676.31
2022-10-29T04:07:16.292Z,101671.53
2022-10-29T04:09:42.603Z,101670.59
2022-10-29T04:12:08.917Z,101669.59
2022-10-29T04:14:35.301Z,101677.59
2022-10-29T04:17:01.640Z,101682.78
2022-10-29T04:19:29.325Z,101674.47
2022-10-29T04:32:40.710Z,101681.19
2022-10-29T04:35:08.724Z,101686.53
2022-10-29T04:37:35.024Z,101683.03
2022-10-29T04:40:01.314Z,101677.00
2022-10-29T04:42:27.600Z,101672.97
2022-10-29T04:44:53.874Z,101667.94
2022-10-29T04:47:20.169Z,101662.59
2022-10-29T04:49:46.493Z,101671.44
2022-10-29T04:52:14.137Z,101681.00
2022-10-29T04:54:40.406Z,101687.84
2022-10-29T04:57:06.688Z,101687.69
2022-10-29T04:59:32.959Z,101681.19
2022-10-29T05:01:59.225Z,101682.03
2022-10-29T05:04:25.518Z,101676.00
2022-10-29T05:06:51.774Z,101668.81
2022-10-29T05:09:19.451Z,101657.97
2022-10-29T05:11:45.749Z,101656.31
2022-10-29T05:14:12.053Z,101652.63
2022-10-29T05:16:38.394Z,101637.59
2022-10-29T05:19:04.683Z,101636.59
2022-10-29T05:21:31.270Z,101638.22
2022-10-29T05:23:57.584Z,101632.03
2022-10-29T05:26:25.229Z,101629.38
2022-10-29T05:28:51.627Z,101633.72
2022-10-29T05:31:18.191Z,101643.25
2022-10-29T05:33:44.839Z,101638.59
2022-10-29T05:36:11.270Z,101640.13
2022-10-29T05:38:37.573Z,101646.13
2022-10-29T05:41:03.890Z,101641.44
2022-10-29T05:43:31.551Z,101645.63
2022-10-29T05:45:57.849Z,101634.09
2022-10-29T05:48:24.162Z,101632.94
2022-10-29T05:50:50.456Z,101634.78
2022-10-29T05:53:16.747Z,101636.44
2022-10-29T05:55:43.051Z,101631.25
2022-10-29T05:58:10.591Z,101620.56
2022-10-29T06:00:38.992Z,101609.19
2022-10-29T06:03:08.931Z,101610.34
2022-10-29T06:05:35.288Z,101619.22
2022-10-29T06:08:01.748Z,101614.69
2022-10-29T06:10:29.013Z,101612.84
2022-10-29T06:12:55.376Z,101618.22
2022-10-29T06:15:21.676Z,101620.72
2022-10-29T06:17:49.694Z,101627.06
2022-10-29T06:20:17.033Z,101620.72
2022-10-29T06:22:43.306Z,101625.91
2022-10-29T06:25:09.860Z,101626.75
2022-10-29T06:27:36.204Z,101636.28
2022-10-29T06:30:02.680Z,101642.31
2022-10-29T06:32:28.965Z,101640.28
2022-10-29T06:34:56.599Z,101643.81
2022-10-29T06:37:22.932Z,101636.63
2022-10-29T06:39:49.262Z,101635.63
2022-10-29T06:42:15.564Z,101633.94
2022-10-29T06:44:41.851Z,101640.28
2022-10-29T06:47:08.140Z,101634.09
2022-10-29T06:49:34.431Z,101627.94
2022-10-29T06:52:02.027Z,101620.72
2022-10-29T06:54:28.310Z,101626.28
2022-10-29T06:56:54.589Z,101627.94
2022-10-29T06:59:20.885Z,101638.97
2022-10-29T07:01:47.263Z,101640.34
2022-10-29T07:04:13.615Z,101634.63
2022-10-29T07:06:39.886Z,101631.78
2022-10-29T07:09:07.524Z,101634.16
2022-10-29T07:11:33.808Z,101638.19
2022-10-29T07:14:00.646Z,101647.69
2022-10-29T07:16:26.926Z,101651.19
2022-10-29T07:18:53.238Z,101639.50
2022-10-29T07:21:19.522Z,101638.50
2022-10-29T07:23:45.809Z,101642.69
2022-10-29T07:26:13.457Z,101633.50
2022-10-29T07:28:39.749Z,101639.34
2022-10-29T07:31:06.019Z,101638.84
2022-10-29T07:33:32.305Z,101634.84
2022-10-29T07:35:59.047Z,101622.94
2022-10-29T07:38:25.900Z,101623.63
2022-10-29T07:40:52.801Z,101612.06
2022-10-29T07:43:20.934Z,101618.94
2022-10-29T07:45:47.918Z,101617.63
2022-10-29T07:48:14.212Z,101614.78
2022-10-29T07:50:40.487Z,101619.94
2022-10-29T07:53:07.234Z,101612.09
2022-10-29T07:55:34.030Z,101605.91
2022-10-29T07:58:01.511Z,101617.09
2022-10-29T08:00:29.268Z,101618.59
2022-10-29T08:02:55.791Z,101613.94
2022-10-29T08:05:22.388Z,101611.75
2022-10-29T08:07:48.683Z,101610.56
2022-10-29T08:10:15.124Z,101612.59
2022-10-29T08:12:47.815Z,101609.22
2022-10-29T08:15:14.191Z,101612.25
2022-10-29T08:17:41.821Z,101610.88
2022-10-29T08:20:08.916Z,101606.53
2022-10-29T08:22:35.204Z,101611.19
2022-10-29T08:25:01.496Z,101612.19
2022-10-29T08:27:27.788Z,101600.78
2022-10-29T08:29:54.090Z,101604.09
2022-10-29T08:32:20.361Z,101601.03
2022-10-29T08:34:48.004Z,101597.97
2022-10-29T08:37:14.301Z,101594.22
2022-10-29T08:39:40.628Z,101608.25
2022-10-29T08:42:11.725Z,101611.94
2022-10-29T08:44:50.999Z,101610.53
2022-10-29T08:47:18.760Z,101608.22
2022-10-29T08:49:46.480Z,101611.56
2022-10-29T08:52:17.092Z,101605.63
2022-10-29T08:54:45.891Z,101602.25
2022-10-29T08:57:14.418Z,101597.19
2022-10-29T08:59:45.328Z,101593.81
2022-10-29T09:02:15.149Z,101596.41
2022-10-29T09:04:41.490Z,101599.50
2022-10-29T09:07:15.760Z,101601.84
2022-10-29T09:09:44.359Z,101603.53
2022-10-29T09:12:18.748Z,101600.84
2022-10-29T09:14:54.730Z,101607.50
2022-10-29T09:17:28.007Z,101601.03
2022-10-29T09:20:14.150Z,101610.34
2022-10-29T09:22:46.647Z,101610.84
2022-10-29T09:25:17.329Z,101610.44
2022-10-29T09:27:48.675Z,101613.03
2022-10-29T09:30:16.426Z,101597.28
2022-10-29T09:32:44.436Z,101599.69
2022-10-29T09:35:13.105Z,101593.94
2022-10-29T09:37:41.718Z,101598.09
2022-10-29T09:40:15.460Z,101597.00
2022-10-29T09:42:44.801Z,101596.72
2022-10-29T09:45:14.470Z,101589.25
2022-10-29T09:47:45.642Z,101581.28
2022-10-29T09:50:16.087Z,101592.53
2022-10-29T09:52:43.625Z,101586.94
2022-10-29T09:55:15.880Z,101580.34
2022-10-29T09:57:43.559Z,101578.94
2022-10-29T10:00:16.340Z,101566.16
2022-10-29T10:02:43.351Z,101561.19
2022-10-29T10:05:14.569Z,101568.91
2022-10-29T10:07:41.205Z,101568.63
2022-10-29T10:10:19.129Z,101566.53
2022-10-29T10:12:48.006Z,101575.44
2022-10-29T10:15:18.344Z,101561.69
2022-10-29T10:17:56.032Z,101562.06
2022-10-29T10:20:25.842Z,101553.31
2022-10-29T10:22:52.170Z,101558.78
2022-10-29T10:25:31.035Z,101559.66
2022-10-29T10:28:02.591Z,101554.72
2022-10-29T10:30:28.877Z,101572.56
2022-10-29T10:32:59.433Z,101563.47
2022-10-29T10:35:26.948Z,101564.25
2022-10-29T10:37:53.873Z,101561.50
2022-10-29T10:40:22.280Z,101560.84
2022-10-29T10:42:48.634Z,101561.03
2022-10-29T10:45:16.760Z,101552.75
2022-10-29T10:47:45.656Z,101551.75
2022-10-29T10:50:13.356Z,101559.69
2022-10-29T10:52:40.601Z,101549.59
2022-10-29T10:55:10.051Z,101540.88
2022-10-29T10:57:40.028Z,101551.47
2022-10-29T11:00:07.687Z,101538.81
2022-10-29T11:02:40.593Z,101543.00
2022-10-29T11:05:11.943Z,101534.91
2022-10-29T11:07:41.202Z,101537.41
2022-10-29T11:10:12.107Z,101539.91
2022-10-29T11:12:41.431Z,101532.03
2022-10-29T11:15:12.769Z,101527.47
2022-10-29T11:17:51.337Z,101531.63
2022-10-29T11:20:22.703Z,101523.34
2022-10-29T11:22:54.695Z,101519.19
2022-10-29T11:25:24.570Z,101527.91
2022-10-29T11:27:53.119Z,101519.63
2022-10-29T11:30:20.042Z,101519.22
2022-10-29T11:33:00.143Z,101524.00
2022-10-29T11:35:32.784Z,101525.47
2022-10-29T11:38:02.225Z,101520.06
2022-10-29T11:40:34.055Z,101516.81
2022-10-29T11:43:00.340Z,101517.44
2022-10-29T11:45:34.980Z,101509.97
2022-10-29T11:48:11.787Z,101510.00
2022-10-29T11:50:41.906Z,101500.06
2022-10-29T11:53:15.418Z,101512.72
2022-10-29T11:55:48.357Z,101509.22
2022-10-29T11:58:17.390Z,101508.78
2022-10-29T12:00:51.294Z,101507.94
2022-10-29T12:03:28.675Z,101499.63
2022-10-29T12:05:58.379Z,101500.69
2022-10-29T12:08:34.046Z,101499.00
2022-10-29T12:11:04.667Z,101493.38
2022-10-29T12:13:38.685Z,101494.44
2022-10-29T12:16:13.229Z,101485.50
2022-10-29T12:18:45.768Z,101479.91
2022-10-29T12:21:17.234Z,101478.44
2022-10-29T12:23:51.721Z,101481.97
2022-10-29T12:26:22.232Z,101474.06
2022-10-29T12:28:54.822Z,101469.72
2022-10-29T12:31:24.912Z,101471.41
2022-10-29T12:33:56.187Z,101470.31
2022-10-29T12:36:27.687Z,101469.91
2022-10-29T12:38:55.463Z,101465.97
2022-10-29T12:41:23.692Z,101456.81
2022-10-29T12:43:51.526Z,101447.69
2022-10-29T12:46:24.317Z,101440.41
2022-10-29T12:48:56.953Z,101445.81
2022-10-29T12:51:27.267Z,101442.66
2022-10-29T12:54:04.890Z,101440.56
2022-10-29T12:56:31.513Z,101444.53
2022-10-29T12:58:58.364Z,101440.56
2022-10-29T13:02:10.005Z,101431.44
2022-10-29T13:04:31.923Z,101427.84
2022-10-29T13:07:13.146Z,101433.69
2022-10-29T13:09:41.066Z,101433.06
2022-10-29T13:12:10.271Z,101429.16
2022-10-29T13:14:39.336Z,101428.94
2022-10-29T13:17:18.060Z,101423.91
2022-10-29T13:19:49.150Z,101420.16
2022-10-29T13:22:32.693Z,101412.69
2022-10-29T13:25:17.604Z,101402.66
2022-10-29T13:27:43.937Z,101412.44
2022-10-29T13:30:16.373Z,101397.03
2022-10-29T13:32:42.647Z,101399.31
2022-10-29T13:35:23.817Z,101397.03
2022-10-29T13:37:52.578Z,101392.47
2022-10-29T13:40:37.338Z,101399.16
2022-10-29T13:43:05.123Z,101402.28
2022-10-29T13:45:32.855Z,101398.13
2022-10-29T13:48:01.155Z,101396.28
2022-10-29T13:50:27.472Z,101395.03
2022-10-29T13:52:58.128Z,101396.28
2022-10-29T13:55:25.389Z,101384.22
2022-10-29T13:57:58.864Z,101391.72
2022-10-29T14:00:25.533Z,101390.88
2022-10-29T14:02:54.178Z,101387.78
2022-10-29T14:05:22.944Z,101383.81
2022-10-29T14:07:52.647Z,101386.53
2022-10-29T14:10:23.528Z,101385.06
2022-10-29T14:12:54.398Z,101382.38
2022-10-29T14:15:21.114Z,101379.66
2022-10-29T14:17:47.490Z,101376.78
2022-10-29T14:20:21.293Z,101382.00
2022-10-29T14:22:47.592Z,101384.31
2022-10-29T14:25:29.291Z,101380.13
2022-10-29T14:28:08.582Z,101381.38
2022-10-29T14:30:34.891Z,101385.56
2022-10-29T14:33:01.179Z,101381.41
2022-10-29T14:35:27.592Z,101377.25
2022-10-29T14:37:55.857Z,101375.78
2022-10-29T14:40:23.070Z,101376.00
2022-10-29T14:42:52.206Z,101371.88
2022-10-29T14:45:20.627Z,101375.59
2022-10-29T14:47:52.029Z,101374.78
2022-10-29T14:50:20.369Z,101374.16
2022-10-29T14:52:53.356Z,101376.03
2022-10-29T14:55:21.404Z,101371.03
2022-10-29T14:57:49.500Z,101362.31
2022-10-29T15:00:23.728Z,101360.66
2022-10-29T15:02:51.318Z,101359.41
2022-10-29T15:05:21.897Z,101365.25
2022-10-29T15:07:48.487Z,101371.88
2022-10-29T15:10:19.275Z,101360.91
2022-10-29T15:12:46.527Z,101368.38
2022-10-29T15:15:22.098Z,101360.88
2022-10-29T15:17:51.435Z,101368.59
2022-10-29T15:20:20.062Z,101372.53
2022-10-29T15:22:46.382Z,101361.31
2022-10-29T15:25:17.168Z,101364.47
2022-10-29T15:27:43.589Z,101365.06
2022-10-29T15:30:17.835Z,101357.38
2022-10-29T15:32:44.406Z,101351.78
2022-10-29T15:35:18.163Z,101354.06
2022-10-29T15:37:44.485Z,101355.72
2022-10-29T15:40:11.879Z,101354.44
2022-10-29T15:42:38.643Z,101347.78
2022-10-29T15:45:14.841Z,101346.56
2022-10-29T15:47:42.108Z,101343.66
2022-10-29T15:50:10.032Z,101348.00
2022-10-29T15:52:39.079Z,101343.22
2022-10-29T15:55:10.012Z,101335.97
2022-10-29T15:57:36.598Z,101338.44
2022-10-29T16:02:35.753Z,101322.66
2022-10-29T16:05:02.099Z,101324.53
2022-10-29T16:07:28.580Z,101317.25
2022-10-29T16:09:57.368Z,101312.69
2022-10-29T16:12:23.987Z,101311.41
2022-10-29T16:14:50.340Z,101306.63
2022-10-29T16:17:17.999Z,101312.44
2022-10-29T16:19:44.549Z,101307.81
2022-10-29T16:22:13.184Z,101306.59
2022-10-29T16:24:39.501Z,101305.31
2022-10-29T16:27:11.492Z,101305.72
2022-10-29T16:29:37.794Z,101314.41
2022-10-29T16:32:04.350Z,101309.22
2022-10-29T16:34:30.933Z,101303.00
2022-10-29T16:36:57.224Z,101307.13
2022-10-29T16:39:23.523Z,101294.88
2022-10-29T16:41:49.823Z,101304.03
2022-10-29T16:44:17.462Z,101296.53
2022-10-29T16:46:43.763Z,101296.53
2022-10-29T16:49:10.064Z,101300.25
2022-10-29T16:51:36.376Z,101302.34
2022-10-29T16:54:02.698Z,101288.25
2022-10-29T16:56:29.015Z,101293.84
2022-10-29T16:59:01.371Z,101283.91
2022-10-29T17:01:29.601Z,101284.94
2022-10-29T17:03:56.019Z,101290.72
2022-10-29T17:06:22.403Z,101286.16
2022-10-29T17:08:48.763Z,101276.84
2022-10-29T17:11:15.145Z,101290.50
2022-10-29T17:13:41.553Z,101284.28
2022-10-29T17:16:08.436Z,101276.59
2022-10-29T17:18:36.187Z,101277.81
2022-10-29T17:21:02.560Z,101285.28
2022-10-29T17:23:29.028Z,101285.69
2022-10-29T17:25:55.939Z,101278.81
2022-10-29T17:28:22.730Z,101281.91
2022-10-29T17:30:49.233Z,101281.28
2022-10-29T17:33:15.543Z,101277.97
2022-10-29T17:35:43.279Z,101273.63
2022-10-29T17:38:10.010Z,101270.47
2022-10-29T17:40:36.611Z,101268.38
2022-10-29T17:43:02.934Z,101270.66
2022-10-29T17:45:29.410Z,101269.19
2022-10-29T17:47:56.354Z,101273.94
2022-10-29T17:50:23.311Z,101287.59
2022-10-29T17:52:51.588Z,101294.00
2022-10-29T17:55:17.925Z,101304.16
2022-10-29T17:57:44.203Z,101309.91
2022-10-29T18:00:11.186Z,101309.09
2022-10-29T18:02:37.522Z,101321.06
2022-10-29T18:05:04.132Z,101326.78
2022-10-29T18:07:30.484Z,101325.53
2022-10-29T18:09:58.131Z,101329.44
2022-10-29T18:12:24.464Z,101337.91
2022-10-29T18:14:50.762Z,101343.69
2022-10-29T18:17:17.054Z,101337.50
2022-10-29T18:19:43.337Z,101349.66
2022-10-29T18:22:09.625Z,101332.22
2022-10-29T18:24:35.915Z,101341.53
2022-10-29T18:27:03.647Z,101346.91
2022-10-29T18:29:29.962Z,101352.69
2022-10-29T18:31:56.273Z,101351.19
2022-10-29T18:34:22.550Z,101343.50
2022-10-29T18:36:48.839Z,101338.53
2022-10-29T18:39:15.118Z,101340.97
2022-10-29T18:41:41.416Z,101342.00
2022-10-29T18:44:09.036Z,101339.25
2022-10-29T18:46:35.436Z,101337.13
2022-10-29T18:49:01.739Z,101343.94
2022-10-29T18:51:29.598Z,101340.59
2022-10-29T18:53:56.376Z,101339.13
2022-10-29T18:56:22.833Z,101341.16
2022-10-29T18:58:49.415Z,101337.00
2022-10-29T19:01:18.122Z,101335.38
2022-10-29T19:03:48.134Z,101340.75
2022-10-29T19:06:14.433Z,101344.44
2022-10-29T19:08:41.511Z,101342.97
2022-10-29T19:11:09.480Z,101348.53
2022-10-29T19:13:36.025Z,101338.16
2022-10-29T19:16:03.042Z,101339.34
2022-10-29T19:18:31.242Z,101341.44
2022-10-29T19:21:01.393Z,101346.81
2022-10-29T19:23:27.707Z,101340.78
2022-10-29T19:25:53.979Z,101347.19
2022-10-29T19:28:20.259Z,101344.50
2022-10-29T19:30:46.557Z,101347.19
2022-10-29T19:33:12.858Z,101333.28
2022-10-29T19:35:40.487Z,101331.00
2022-10-29T19:38:06.768Z,101327.66
2022-10-29T19:40:33.086Z,101344.81
2022-10-29T19:42:59.395Z,101341.44
2022-10-29T19:45:25.719Z,101343.66
2022-10-29T19:47:52.027Z,101343.03
2022-10-29T19:50:18.375Z,101349.44
2022-10-29T19:52:46.032Z,101358.50
2022-10-29T19:55:12.326Z,101361.38
2022-10-29T19:57:38.643Z,101353.31
2022-10-29T20:00:05.401Z,101352.66
2022-10-29T20:02:31.738Z,101361.75
2022-10-29T20:04:58.090Z,101364.44
2022-10-29T20:07:24.411Z,101352.03
2022-10-29T20:09:52.036Z,101359.06
2022-10-29T20:12:18.351Z,101356.38
2022-10-29T20:14:44.646Z,101360.72
2022-10-29T20:17:10.942Z,101359.72
2022-10-29T20:19:37.247Z,101367.13
2022-10-29T20:22:03.586Z,101363.59
2022-10-29T20:24:29.919Z,101360.91
2022-10-29T20:26:57.783Z,101363.78
2022-10-29T20:29:24.128Z,101361.28
2022-10-29T20:31:50.407Z,101363.97
2022-10-29T20:34:16.723Z,101356.13
2022-10-29T20:36:43.103Z,101363.72
2022-10-29T20:39:09.520Z,101361.22
2022-10-29T20:41:35.787Z,101368.81
2022-10-29T20:44:03.439Z,101362.81
2022-10-29T20:46:29.707Z,101374.56
2022-10-29T20:48:56.164Z,101380.31
2022-10-29T20:51:22.620Z,101372.44
2022-10-29T20:53:48.910Z,101378.81
2022-10-29T20:56:16.554Z,101378.16
2022-10-29T20:58:43.499Z,101372.97
2022-10-29T21:01:11.970Z,101382.88
2022-10-29T21:03:38.309Z,101387.44
2022-10-29T21:06:05.471Z,101394.84
2022-10-29T21:08:32.213Z,101395.88
2022-10-29T21:10:59.199Z,101387.16
2022-10-29T21:13:25.479Z,101393.38
2022-10-29T21:15:51.791Z,101392.72
2022-10-29T21:18:19.566Z,101396.81
2022-10-29T21:20:45.856Z,101394.13
2022-10-29T21:23:12.423Z,101397.34
2022-10-29T21:25:38.769Z,101394.84
2022-10-29T21:28:05.303Z,101403.91
2022-10-29T21:30:31.608Z,101396.88
2022-10-29T21:32:57.903Z,101408.63
2022-10-29T21:35:25.514Z,101411.31
2022-10-29T21:37:51.804Z,101408.63
2022-10-29T21:40:18.090Z,101405.94
2022-10-29T21:42:44.374Z,101408.63
2022-10-29T21:45:10.697Z,101406.97
2022-10-29T21:47:36.959Z,101403.25
2022-10-29T21:50:03.388Z,101412.16
2022-10-29T21:52:31.019Z,101411.13
2022-10-29T21:54:57.299Z,101414.00
2022-10-29T21:57:23.589Z,101412.31
2022-10-29T21:59:49.882Z,101406.97
2022-10-29T22:02:16.285Z,101405.31
2022-10-29T22:04:42.686Z,101409.84
2022-10-29T22:07:08.983Z,101415.22
2022-10-29T22:09:36.618Z,101411.69
2022-10-29T22:12:03.024Z,101412.72
2022-10-29T22:14:29.330Z,101410.22
2022-10-29T22:16:55.626Z,101413.72
2022-10-29T22:19:21.946Z,101417.44
2022-10-29T22:21:48.214Z,101416.41
2022-10-29T22:24:14.484Z,101415.59
2022-10-29T22:26:42.390Z,101412.41
2022-10-29T22:29:08.799Z,101419.63
2022-10-29T22:31:35.064Z,101425.00
2022-10-29T22:34:01.331Z,101416.28
2022-10-29T22:36:27.618Z,101420.22
2022-10-29T22:38:54.020Z,101426.75
2022-10-29T22:41:20.364Z,101429.63
2022-10-29T22:43:48.105Z,101423.44
2022-10-29T22:46:15.503Z,101426.63
2022-10-29T22:48:41.997Z,101426.00
2022-10-29T22:51:11.563Z,101419.16
2022-10-29T22:53:37.989Z,101434.78
2022-10-29T22:56:04.771Z,101429.13
2022-10-29T22:58:31.196Z,101434.03
2022-10-29T23:01:02.354Z,101432.66
2022-10-29T23:03:28.697Z,101433.88
2022-10-29T23:05:58.020Z,101427.88
2022-10-29T23:08:24.343Z,101433.59
2022-10-29T23:10:50.652Z,101435.44
2022-10-29T23:13:16.940Z,101439.28
2022-10-29T23:15:45.666Z,101438.19
2022-10-29T23:18:13.317Z,101441.56
2022-10-29T23:20:39.815Z,101438.59
2022-10-29T23:23:06.114Z,101440.63
2022-10-29T23:25:32.493Z,101438.47
2022-10-29T23:27:58.823Z,101436.78
2022-10-29T23:30:25.307Z,101439.19
2022-10-29T23:32:51.628Z,101437.41
2022-10-29T23:35:19.311Z,101439.59
2022-10-29T23:37:45.571Z,101436.25
2022-10-29T23:40:12.093Z,101436.25
2022-10-29T23:42:38.381Z,101442.44
2022-10-29T23:45:07.671Z,101439.09
2022-10-29T23:47:34.240Z,101438.28
2022-10-29T23:50:00.545Z,101441.31
2022-10-29T23:52:28.168Z,101436.97
2022-10-29T23:54:54.437Z,101439.66
2022-10-29T23:57:20.731Z,101436.31
2022-10-29T23:59:47.031Z,101429.81
